sensor_id;sensor_type;location;lat;lon;timestamp;pressure;altitude;pressure_sealevel;temperature;humidity
66762;BME280;53672;48.176;16.338;2023-05-09T00:01:53;99844.78;;;8.38;64.30
66762;BME280;53672;48.176;16.338;2023-05-09T00:06:54;99839.16;;;8.39;64.63
66762;BME280;53672;48.176;16.338;2023-05-09T00:11:54;99841.19;;;8.32;65.05
66762;BME280;53672;48.176;16.338;2023-05-09T00:16:56;99838.34;;;8.39;65.38
66762;BME280;53672;48.176;16.338;2023-05-09T00:21:57;99826.72;;;8.33;65.24
66762;BME280;53672;48.176;16.338;2023-05-09T00:26:57;99817.69;;;8.23;65.11
66762;BME280;53672;48.176;16.338;2023-05-09T00:31:59;99821.59;;;8.15;66.52
66762;BME280;53672;48.176;16.338;2023-05-09T00:36:59;99821.03;;;8.13;67.30
66762;BME280;53672;48.176;16.338;2023-05-09T00:42:00;99807.63;;;8.13;66.49
66762;BME280;53672;48.176;16.338;2023-05-09T00:47:02;99801.75;;;8.16;67.54
66762;BME280;53672;48.176;16.338;2023-05-09T00:52:04;99808.97;;;8.15;67.55
66762;BME280;53672;48.176;16.338;2023-05-09T00:57:04;99807.13;;;8.16;67.40
66762;BME280;53672;48.176;16.338;2023-05-09T01:02:06;99806.81;;;8.12;66.94
66762;BME280;53672;48.176;16.338;2023-05-09T01:07:10;99806.31;;;8.15;67.82
66762;BME280;53672;48.176;16.338;2023-05-09T01:12:20;99800.69;;;8.17;67.79
66762;BME280;53672;48.176;16.338;2023-05-09T01:17:34;99789.38;;;8.32;66.66
66762;BME280;53672;48.176;16.338;2023-05-09T01:22:40;99792.78;;;8.27;67.19
66762;BME280;53672;48.176;16.338;2023-05-09T01:27:48;99794.31;;;8.23;67.22
66762;BME280;53672;48.176;16.338;2023-05-09T01:32:56;99791.97;;;8.27;67.36
66762;BME280;53672;48.176;16.338;2023-05-09T01:37:58;99795.38;;;8.22;67.71
66762;BME280;53672;48.176;16.338;2023-05-09T01:43:04;99786.97;;;8.13;67.56
66762;BME280;53672;48.176;16.338;2023-05-09T01:48:08;99791.81;;;8.16;68.62
66762;BME280;53672;48.176;16.338;2023-05-09T01:53:10;99788.09;;;8.18;68.34
66762;BME280;53672;48.176;16.338;2023-05-09T01:58:12;99787.41;;;8.27;68.18
66762;BME280;53672;48.176;16.338;2023-05-09T02:03:15;99784.63;;;8.39;68.71
66762;BME280;53672;48.176;16.338;2023-05-09T02:08:17;99779.75;;;8.36;68.57
66762;BME280;53672;48.176;16.338;2023-05-09T02:13:18;99783.25;;;8.36;69.13
66762;BME280;53672;48.176;16.338;2023-05-09T02:18:20;99788.72;;;8.25;69.30
66762;BME280;53672;48.176;16.338;2023-05-09T02:23:20;99785.97;;;8.20;70.58
66762;BME280;53672;48.176;16.338;2023-05-09T02:28:22;99780.28;;;8.16;71.01
66762;BME280;53672;48.176;16.338;2023-05-09T02:33:24;99781.31;;;8.15;71.20
66762;BME280;53672;48.176;16.338;2023-05-09T02:38:25;99777.72;;;8.04;71.74
66762;BME280;53672;48.176;16.338;2023-05-09T02:43:25;99776.31;;;8.02;72.12
66762;BME280;53672;48.176;16.338;2023-05-09T02:48:27;99779.59;;;8.26;71.44
66762;BME280;53672;48.176;16.338;2023-05-09T02:53:28;99784.50;;;8.29;71.22
66762;BME280;53672;48.176;16.338;2023-05-09T02:58:28;99783.78;;;8.16;72.22
66762;BME280;53672;48.176;16.338;2023-05-09T03:03:30;99780.63;;;8.03;72.43
66762;BME280;53672;48.176;16.338;2023-05-09T03:08:31;99776.09;;;8.03;72.38
66762;BME280;53672;48.176;16.338;2023-05-09T03:13:31;99770.22;;;8.06;72.84
66762;BME280;53672;48.176;16.338;2023-05-09T03:18:33;99776.09;;;8.03;72.11
66762;BME280;53672;48.176;16.338;2023-05-09T03:23:34;99771.53;;;8.04;72.27
66762;BME280;53672;48.176;16.338;2023-05-09T03:28:34;99773.56;;;7.97;72.30
66762;BME280;53672;48.176;16.338;2023-05-09T03:33:36;99769.91;;;8.03;72.47
66762;BME280;53672;48.176;16.338;2023-05-09T03:38:36;99781.63;;;7.97;72.40
66762;BME280;53672;48.176;16.338;2023-05-09T03:43:37;99783.41;;;7.91;72.63
66762;BME280;53672;48.176;16.338;2023-05-09T03:48:39;99777.50;;;7.89;72.97
66762;BME280;53672;48.176;16.338;2023-05-09T03:53:39;99783.41;;;7.91;72.85
66762;BME280;53672;48.176;16.338;2023-05-09T03:58:40;99783.19;;;7.93;72.20
66762;BME280;53672;48.176;16.338;2023-05-09T04:03:42;99781.84;;;7.95;71.96
66762;BME280;53672;48.176;16.338;2023-05-09T04:08:42;99791.00;;;7.94;71.92
66762;BME280;53672;48.176;16.338;2023-05-09T04:13:43;99780.66;;;7.86;72.21
66762;BME280;53672;48.176;16.338;2023-05-09T04:18:44;99795.50;;;8.10;71.02
66762;BME280;53672;48.176;16.338;2023-05-09T04:23:45;99789.00;;;8.06;71.21
66762;BME280;53672;48.176;16.338;2023-05-09T04:28:45;99793.47;;;8.18;70.81
66762;BME280;53672;48.176;16.338;2023-05-09T04:33:47;99788.63;;;8.20;70.75
66762;BME280;53672;48.176;16.338;2023-05-09T04:38:48;99793.66;;;8.33;70.04
66762;BME280;53672;48.176;16.338;2023-05-09T04:43:48;99793.91;;;8.53;69.70
66762;BME280;53672;48.176;16.338;2023-05-09T04:48:50;99791.00;;;8.76;68.63
66762;BME280;53672;48.176;16.338;2023-05-09T04:53:50;99801.38;;;8.94;67.65
66762;BME280;53672;48.176;16.338;2023-05-09T04:58:51;99791.03;;;9.08;67.28
66762;BME280;53672;48.176;16.338;2023-05-09T05:03:53;99789.75;;;9.15;66.22
66762;BME280;53672;48.176;16.338;2023-05-09T05:08:53;99795.75;;;9.23;65.97
66762;BME280;53672;48.176;16.338;2023-05-09T05:13:54;99795.13;;;9.42;65.03
66762;BME280;53672;48.176;16.338;2023-05-09T05:18:55;99790.47;;;9.69;63.88
66762;BME280;53672;48.176;16.338;2023-05-09T05:23:56;99791.47;;;9.95;63.08
66762;BME280;53672;48.176;16.338;2023-05-09T05:28:57;99795.81;;;10.01;62.52
66762;BME280;53672;48.176;16.338;2023-05-09T05:33:58;99789.81;;;10.26;60.92
66762;BME280;53672;48.176;16.338;2023-05-09T05:38:59;99786.34;;;10.31;61.15
66762;BME280;53672;48.176;16.338;2023-05-09T05:43:59;99780.75;;;10.47;61.00
66762;BME280;53672;48.176;16.338;2023-05-09T05:49:01;99784.81;;;10.60;60.71
66762;BME280;53672;48.176;16.338;2023-05-09T05:54:02;99775.22;;;10.94;59.12
66762;BME280;53672;48.176;16.338;2023-05-09T05:59:02;99779.84;;;11.29;57.86
66762;BME280;53672;48.176;16.338;2023-05-09T06:04:04;99771.75;;;11.59;55.47
66762;BME280;53672;48.176;16.338;2023-05-09T06:09:04;99780.66;;;11.85;54.27
66762;BME280;53672;48.176;16.338;2023-05-09T06:14:05;99780.03;;;12.24;53.51
66762;BME280;53672;48.176;16.338;2023-05-09T06:19:07;99770.56;;;12.31;52.80
66762;BME280;53672;48.176;16.338;2023-05-09T06:24:07;99778.63;;;12.41;52.13
66762;BME280;53672;48.176;16.338;2023-05-09T06:29:08;99768.50;;;12.72;51.65
66762;BME280;53672;48.176;16.338;2023-05-09T06:34:10;99766.81;;;12.81;50.81
66762;BME280;53672;48.176;16.338;2023-05-09T06:39:10;99757.19;;;12.60;51.45
66762;BME280;53672;48.176;16.338;2023-05-09T06:44:11;99760.34;;;12.77;51.32
66762;BME280;53672;48.176;16.338;2023-05-09T06:49:12;99756.66;;;13.46;49.58
66762;BME280;53672;48.176;16.338;2023-05-09T06:54:13;99763.41;;;13.09;50.13
66762;BME280;53672;48.176;16.338;2023-05-09T06:59:13;99767.13;;;13.57;49.90
66762;BME280;53672;48.176;16.338;2023-05-09T07:04:15;99750.16;;;13.76;49.17
66762;BME280;53672;48.176;16.338;2023-05-09T07:09:16;99754.63;;;13.90;48.94
66762;BME280;53672;48.176;16.338;2023-05-09T07:14:16;99751.56;;;13.97;48.88
66762;BME280;53672;48.176;16.338;2023-05-09T07:19:18;99754.13;;;13.54;49.26
66762;BME280;53672;48.176;16.338;2023-05-09T07:24:18;99744.75;;;13.76;49.22
66762;BME280;53672;48.176;16.338;2023-05-09T07:29:19;99744.25;;;13.68;49.39
66762;BME280;53672;48.176;16.338;2023-05-09T07:34:21;99736.41;;;13.67;49.13
66762;BME280;53672;48.176;16.338;2023-05-09T07:39:21;99732.03;;;13.71;48.86
66762;BME280;53672;48.176;16.338;2023-05-09T07:44:22;99720.59;;;14.27;47.10
66762;BME280;53672;48.176;16.338;2023-05-09T07:49:24;99725.06;;;14.17;46.96
66762;BME280;53672;48.176;16.338;2023-05-09T07:54:24;99713.13;;;14.61;46.85
66762;BME280;53672;48.176;16.338;2023-05-09T07:59:25;99715.69;;;14.71;46.29
66762;BME280;53672;48.176;16.338;2023-05-09T08:04:26;99711.78;;;15.14;45.60
66762;BME280;53672;48.176;16.338;2023-05-09T08:09:27;99704.16;;;15.49;44.42
66762;BME280;53672;48.176;16.338;2023-05-09T08:14:27;99702.03;;;15.46;44.38
66762;BME280;53672;48.176;16.338;2023-05-09T08:19:29;99712.81;;;15.18;44.73
66762;BME280;53672;48.176;16.338;2023-05-09T08:24:30;99708.78;;;15.94;43.69
66762;BME280;53672;48.176;16.338;2023-05-09T08:29:30;99697.63;;;16.09;42.92
66762;BME280;53672;48.176;16.338;2023-05-09T08:34:32;99707.47;;;16.33;42.87
66762;BME280;53672;48.176;16.338;2023-05-09T08:39:33;99694.16;;;16.94;41.58
66762;BME280;53672;48.176;16.338;2023-05-09T08:44:33;99697.81;;;17.56;39.70
66762;BME280;53672;48.176;16.338;2023-05-09T08:49:35;99686.94;;;17.65;39.72
66762;BME280;53672;48.176;16.338;2023-05-09T08:54:36;99692.88;;;16.78;40.86
66762;BME280;53672;48.176;16.338;2023-05-09T08:59:39;99681.22;;;18.23;38.14
66762;BME280;53672;48.176;16.338;2023-05-09T09:04:41;99673.31;;;18.52;38.13
66762;BME280;53672;48.176;16.338;2023-05-09T09:09:43;99668.63;;;19.04;37.06
66762;BME280;53672;48.176;16.338;2023-05-09T09:14:47;99666.94;;;20.39;33.95
66762;BME280;53672;48.176;16.338;2023-05-09T09:19:51;99677.38;;;21.29;32.22
66762;BME280;53672;48.176;16.338;2023-05-09T09:24:54;99676.22;;;22.84;30.09
66762;BME280;53672;48.176;16.338;2023-05-09T09:30:05;99668.22;;;25.13;26.90
66762;BME280;53672;48.176;16.338;2023-05-09T09:35:09;99674.81;;;25.70;25.54
66762;BME280;53672;48.176;16.338;2023-05-09T09:40:11;99655.97;;;26.21;25.14
66762;BME280;53672;48.176;16.338;2023-05-09T09:45:15;99656.19;;;27.61;23.17
66762;BME280;53672;48.176;16.338;2023-05-09T09:50:18;99653.00;;;28.58;22.24
66762;BME280;53672;48.176;16.338;2023-05-09T09:55:20;99654.59;;;29.70;21.01
66762;BME280;53672;48.176;16.338;2023-05-09T10:00:25;99652.22;;;29.58;21.22
66762;BME280;53672;48.176;16.338;2023-05-09T10:05:29;99636.31;;;31.44;19.40
66762;BME280;53672;48.176;16.338;2023-05-09T10:10:32;99629.41;;;32.59;17.97
66762;BME280;53672;48.176;16.338;2023-05-09T10:15:34;99631.81;;;30.88;19.31
66762;BME280;53672;48.176;16.338;2023-05-09T10:20:36;99615.63;;;29.20;21.78
66762;BME280;53672;48.176;16.338;2023-05-09T10:25:39;99609.72;;;30.28;20.61
66762;BME280;53672;48.176;16.338;2023-05-09T10:36:05;99602.59;;;29.67;21.76
66762;BME280;53672;48.176;16.338;2023-05-09T10:41:07;99589.09;;;29.90;20.93
66762;BME280;53672;48.176;16.338;2023-05-09T10:46:08;99593.34;;;30.62;19.62
66762;BME280;53672;48.176;16.338;2023-05-09T10:51:10;99582.75;;;29.65;20.96
66762;BME280;53672;48.176;16.338;2023-05-09T10:56:22;99571.78;;;31.97;19.00
66762;BME280;53672;48.176;16.338;2023-05-09T11:01:31;99593.19;;;31.66;18.70
66762;BME280;53672;48.176;16.338;2023-05-09T11:06:47;99567.50;;;31.86;18.70
66762;BME280;53672;48.176;16.338;2023-05-09T11:11:50;99574.09;;;33.61;17.41
66762;BME280;53672;48.176;16.338;2023-05-09T11:16:56;99553.91;;;31.47;19.12
66762;BME280;53672;48.176;16.338;2023-05-09T11:22:10;99545.03;;;29.78;21.14
66762;BME280;53672;48.176;16.338;2023-05-09T11:27:15;99543.63;;;27.90;23.18
66762;BME280;53672;48.176;16.338;2023-05-09T11:32:16;99534.34;;;29.48;21.74
66762;BME280;53672;48.176;16.338;2023-05-09T11:37:18;99532.38;;;27.21;24.06
66762;BME280;53672;48.176;16.338;2023-05-09T11:42:19;99526.50;;;23.91;28.79
66762;BME280;53672;48.176;16.338;2023-05-09T11:47:20;99522.00;;;29.53;21.55
66762;BME280;53672;48.176;16.338;2023-05-09T11:52:22;99513.81;;;27.69;23.74
66762;BME280;53672;48.176;16.338;2023-05-09T11:57:22;99520.13;;;25.44;26.75
66762;BME280;53672;48.176;16.338;2023-05-09T12:02:23;99508.50;;;24.28;27.72
66762;BME280;53672;48.176;16.338;2023-05-09T12:07:25;99506.75;;;25.46;26.09
66762;BME280;53672;48.176;16.338;2023-05-09T12:12:25;99494.25;;;22.10;31.14
66762;BME280;53672;48.176;16.338;2023-05-09T12:17:26;99476.47;;;21.07;33.55
66762;BME280;53672;48.176;16.338;2023-05-09T12:22:27;99484.75;;;21.19;33.03
66762;BME280;53672;48.176;16.338;2023-05-09T12:27:28;99473.84;;;20.99;33.48
66762;BME280;53672;48.176;16.338;2023-05-09T12:32:29;99473.47;;;20.88;33.88
66762;BME280;53672;48.176;16.338;2023-05-09T12:37:31;99465.22;;;18.93;38.24
66762;BME280;53672;48.176;16.338;2023-05-09T12:42:32;99458.66;;;18.86;37.76
66762;BME280;53672;48.176;16.338;2023-05-09T12:47:33;99441.53;;;19.35;37.36
66762;BME280;53672;48.176;16.338;2023-05-09T12:52:39;99432.56;;;19.35;37.14
66762;BME280;53672;48.176;16.338;2023-05-09T12:57:40;99421.38;;;18.90;37.82
66762;BME280;53672;48.176;16.338;2023-05-09T13:02:41;99417.78;;;18.43;38.44
66762;BME280;53672;48.176;16.338;2023-05-09T13:07:44;99425.50;;;18.58;38.70
66762;BME280;53672;48.176;16.338;2023-05-09T13:12:45;99401.59;;;18.55;38.94
66762;BME280;53672;48.176;16.338;2023-05-09T13:17:46;99400.41;;;19.02;38.44
66762;BME280;53672;48.176;16.338;2023-05-09T13:22:49;99391.59;;;19.76;37.23
66762;BME280;53672;48.176;16.338;2023-05-09T13:27:49;99429.38;;;20.03;35.76
66762;BME280;53672;48.176;16.338;2023-05-09T13:32:50;99383.00;;;19.45;37.27
66762;BME280;53672;48.176;16.338;2023-05-09T13:37:51;99376.00;;;18.97;37.57
66762;BME280;53672;48.176;16.338;2023-05-09T13:42:52;99384.09;;;19.14;36.97
66762;BME280;53672;48.176;16.338;2023-05-09T13:47:52;99376.28;;;19.34;35.89
66762;BME280;53672;48.176;16.338;2023-05-09T13:52:54;99356.91;;;19.18;36.92
66762;BME280;53672;48.176;16.338;2023-05-09T13:57:55;99367.56;;;18.52;38.50
66762;BME280;53672;48.176;16.338;2023-05-09T14:02:55;99349.25;;;18.36;38.92
66762;BME280;53672;48.176;16.338;2023-05-09T14:07:57;99340.53;;;18.04;39.29
66762;BME280;53672;48.176;16.338;2023-05-09T14:12:58;99333.94;;;18.05;39.71
66762;BME280;53672;48.176;16.338;2023-05-09T14:17:58;99326.81;;;18.30;39.25
66762;BME280;53672;48.176;16.338;2023-05-09T14:23:00;99326.59;;;17.97;39.59
66762;BME280;53672;48.176;16.338;2023-05-09T14:28:01;99331.09;;;17.76;39.61
66762;BME280;53672;48.176;16.338;2023-05-09T14:33:01;99327.09;;;17.65;40.23
66762;BME280;53672;48.176;16.338;2023-05-09T14:38:03;99329.31;;;17.46;40.92
66762;BME280;53672;48.176;16.338;2023-05-09T14:43:03;99316.50;;;17.55;40.82
66762;BME280;53672;48.176;16.338;2023-05-09T14:48:04;99326.75;;;17.32;41.43
66762;BME280;53672;48.176;16.338;2023-05-09T14:53:06;99312.31;;;17.14;41.57
66762;BME280;53672;48.176;16.338;2023-05-09T14:58:06;99303.81;;;17.16;41.61
66762;BME280;53672;48.176;16.338;2023-05-09T15:03:07;99310.38;;;17.23;42.01
66762;BME280;53672;48.176;16.338;2023-05-09T15:08:09;99301.88;;;16.99;42.60
66762;BME280;53672;48.176;16.338;2023-05-09T15:13:09;99290.00;;;16.95;42.90
66762;BME280;53672;48.176;16.338;2023-05-09T15:18:10;99284.38;;;16.83;43.11
66762;BME280;53672;48.176;16.338;2023-05-09T15:23:12;99277.97;;;16.79;43.18
66762;BME280;53672;48.176;16.338;2023-05-09T15:28:12;99275.28;;;16.88;43.08
66762;BME280;53672;48.176;16.338;2023-05-09T15:33:13;99273.81;;;16.99;43.10
66762;BME280;53672;48.176;16.338;2023-05-09T15:38:15;99263.75;;;16.91;43.14
66762;BME280;53672;48.176;16.338;2023-05-09T15:43:15;99253.19;;;17.06;43.11
66762;BME280;53672;48.176;16.338;2023-05-09T15:48:16;99252.84;;;16.99;42.64
66762;BME280;53672;48.176;16.338;2023-05-09T15:53:17;99252.72;;;17.04;42.72
66762;BME280;53672;48.176;16.338;2023-05-09T15:58:18;99252.69;;;17.13;41.18
66762;BME280;53672;48.176;16.338;2023-05-09T16:03:18;99240.22;;;17.20;42.16
66762;BME280;53672;48.176;16.338;2023-05-09T16:08:20;99239.41;;;16.94;41.82
66762;BME280;53672;48.176;16.338;2023-05-09T16:13:21;99252.84;;;16.91;42.23
66762;BME280;53672;48.176;16.338;2023-05-09T16:18:21;99222.22;;;16.68;43.42
66762;BME280;53672;48.176;16.338;2023-05-09T16:23:23;99227.84;;;16.63;42.88
66762;BME280;53672;48.176;16.338;2023-05-09T16:28:24;99210.88;;;16.57;41.99
66762;BME280;53672;48.176;16.338;2023-05-09T16:33:24;99205.53;;;16.52;42.44
66762;BME280;53672;48.176;16.338;2023-05-09T16:38:26;99187.94;;;16.50;43.17
66762;BME280;53672;48.176;16.338;2023-05-09T16:43:26;99185.03;;;16.55;42.54
66762;BME280;53672;48.176;16.338;2023-05-09T16:48:27;99198.63;;;16.46;42.49
66762;BME280;53672;48.176;16.338;2023-05-09T16:53:29;99185.63;;;16.35;43.44
66762;BME280;53672;48.176;16.338;2023-05-09T16:58:29;99179.56;;;16.29;43.04
66762;BME280;53672;48.176;16.338;2023-05-09T17:03:30;99173.44;;;16.23;43.35
66762;BME280;53672;48.176;16.338;2023-05-09T17:08:32;99172.16;;;16.21;43.25
66762;BME280;53672;48.176;16.338;2023-05-09T17:13:32;99172.34;;;16.16;43.61
66762;BME280;53672;48.176;16.338;2023-05-09T17:18:32;99167.78;;;16.03;43.69
66762;BME280;53672;48.176;16.338;2023-05-09T17:23:34;99165.25;;;16.06;43.24
66762;BME280;53672;48.176;16.338;2023-05-09T17:28:35;99167.59;;;15.99;43.55
66762;BME280;53672;48.176;16.338;2023-05-09T17:33:35;99167.47;;;15.96;43.96
66762;BME280;53672;48.176;16.338;2023-05-09T17:38:37;99162.13;;;15.82;44.44
66762;BME280;53672;48.176;16.338;2023-05-09T17:43:37;99165.63;;;15.74;44.52
66762;BME280;53672;48.176;16.338;2023-05-09T17:48:38;99164.31;;;15.71;44.72
66762;BME280;53672;48.176;16.338;2023-05-09T17:53:40;99164.81;;;15.73;45.24
66762;BME280;53672;48.176;16.338;2023-05-09T17:58:40;99153.72;;;15.61;44.26
66762;BME280;53672;48.176;16.338;2023-05-09T18:03:41;99155.00;;;15.42;44.87
66762;BME280;53672;48.176;16.338;2023-05-09T18:08:42;99149.72;;;15.37;45.61
66762;BME280;53672;48.176;16.338;2023-05-09T18:13:43;99154.00;;;15.29;46.25
66762;BME280;53672;48.176;16.338;2023-05-09T18:18:43;99148.00;;;15.18;46.61
66762;BME280;53672;48.176;16.338;2023-05-09T18:23:45;99146.84;;;15.11;47.03
66762;BME280;53672;48.176;16.338;2023-05-09T18:28:46;99153.38;;;14.88;47.76
66762;BME280;53672;48.176;16.338;2023-05-09T18:33:46;99160.84;;;14.82;47.49
66762;BME280;53672;48.176;16.338;2023-05-09T18:38:48;99161.72;;;14.69;47.72
66762;BME280;53672;48.176;16.338;2023-05-09T18:43:49;99164.94;;;14.57;47.98
66762;BME280;53672;48.176;16.338;2023-05-09T18:48:50;99156.94;;;14.39;48.32
66762;BME280;53672;48.176;16.338;2023-05-09T18:53:52;99178.75;;;14.34;48.85
66762;BME280;53672;48.176;16.338;2023-05-09T18:58:52;99188.69;;;14.25;49.07
66762;BME280;53672;48.176;16.338;2023-05-09T19:03:53;99175.63;;;14.13;49.06
66762;BME280;53672;48.176;16.338;2023-05-09T19:08:55;99176.44;;;14.13;48.91
66762;BME280;53672;48.176;16.338;2023-05-09T19:13:56;99177.75;;;14.02;49.17
66762;BME280;53672;48.176;16.338;2023-05-09T19:18:57;99173.94;;;14.03;49.09
66762;BME280;53672;48.176;16.338;2023-05-09T19:23:59;99173.34;;;13.93;49.69
66762;BME280;53672;48.176;16.338;2023-05-09T19:28:59;99174.53;;;13.87;50.26
66762;BME280;53672;48.176;16.338;2023-05-09T19:34:00;99166.78;;;13.80;50.50
66762;BME280;53672;48.176;16.338;2023-05-09T19:39:03;99165.69;;;13.67;51.17
66762;BME280;53672;48.176;16.338;2023-05-09T19:44:04;99162.47;;;13.65;51.45
66762;BME280;53672;48.176;16.338;2023-05-09T19:49:04;99163.56;;;13.64;51.32
66762;BME280;53672;48.176;16.338;2023-05-09T19:54:09;99154.03;;;13.67;51.50
66762;BME280;53672;48.176;16.338;2023-05-09T19:59:10;99147.63;;;13.63;52.15
66762;BME280;53672;48.176;16.338;2023-05-09T20:04:10;99146.28;;;13.47;52.54
66762;BME280;53672;48.176;16.338;2023-05-09T20:09:12;99143.50;;;13.52;52.46
66762;BME280;53672;48.176;16.338;2023-05-09T20:14:13;99137.75;;;13.40;53.23
66762;BME280;53672;48.176;16.338;2023-05-09T20:19:14;99134.63;;;13.33;53.51
66762;BME280;53672;48.176;16.338;2023-05-09T20:24:16;99133.94;;;13.27;54.14
66762;BME280;53672;48.176;16.338;2023-05-09T20:29:16;99129.13;;;13.24;54.48
66762;BME280;53672;48.176;16.338;2023-05-09T20:34:17;99128.53;;;13.08;55.63
66762;BME280;53672;48.176;16.338;2023-05-09T20:39:19;99127.72;;;12.94;56.32
66762;BME280;53672;48.176;16.338;2023-05-09T20:44:20;99124.03;;;12.85;56.90
66762;BME280;53672;48.176;16.338;2023-05-09T20:49:21;99107.81;;;12.85;57.05
66762;BME280;53672;48.176;16.338;2023-05-09T20:54:23;99113.75;;;12.87;57.08
66762;BME280;53672;48.176;16.338;2023-05-09T20:59:23;99100.41;;;12.77;57.69
66762;BME280;53672;48.176;16.338;2023-05-09T21:04:24;99098.78;;;12.76;57.59
66762;BME280;53672;48.176;16.338;2023-05-09T21:09:26;99093.06;;;12.78;57.58
66762;BME280;53672;48.176;16.338;2023-05-09T21:14:26;99088.88;;;12.85;57.54
66762;BME280;53672;48.176;16.338;2023-05-09T21:19:27;99090.00;;;12.84;57.33
66762;BME280;53672;48.176;16.338;2023-05-09T21:24:29;99078.34;;;12.70;58.05
66762;BME280;53672;48.176;16.338;2023-05-09T21:29:29;99079.41;;;12.69;57.88
66762;BME280;53672;48.176;16.338;2023-05-09T21:34:30;99079.22;;;12.65;58.34
66762;BME280;53672;48.176;16.338;2023-05-09T21:39:31;99078.72;;;12.63;58.39
66762;BME280;53672;48.176;16.338;2023-05-09T21:44:32;99071.69;;;12.62;58.66
66762;BME280;53672;48.176;16.338;2023-05-09T21:49:32;99073.16;;;12.55;59.02
66762;BME280;53672;48.176;16.338;2023-05-09T21:54:34;99072.44;;;12.49;60.63
66762;BME280;53672;48.176;16.338;2023-05-09T21:59:35;99062.44;;;12.31;60.82
66762;BME280;53672;48.176;16.338;2023-05-09T22:04:36;99059.56;;;12.23;61.71
66762;BME280;53672;48.176;16.338;2023-05-09T22:09:37;99061.78;;;12.20;62.92
66762;BME280;53672;48.176;16.338;2023-05-09T22:14:38;99052.75;;;12.11;62.49
66762;BME280;53672;48.176;16.338;2023-05-09T22:19:39;99057.13;;;12.07;62.83
66762;BME280;53672;48.176;16.338;2023-05-09T22:24:41;99063.00;;;12.09;62.62
66762;BME280;53672;48.176;16.338;2023-05-09T22:29:41;99054.09;;;11.90;65.30
66762;BME280;53672;48.176;16.338;2023-05-09T22:34:45;99059.56;;;11.85;63.95
66762;BME280;53672;48.176;16.338;2023-05-09T22:39:47;99044.69;;;11.88;64.27
66762;BME280;53672;48.176;16.338;2023-05-09T22:44:48;99038.72;;;11.91;63.62
66762;BME280;53672;48.176;16.338;2023-05-09T22:49:49;99043.56;;;11.89;63.33
66762;BME280;53672;48.176;16.338;2023-05-09T22:54:50;99039.75;;;11.95;62.50
66762;BME280;53672;48.176;16.338;2023-05-09T22:59:51;99043.44;;;11.80;65.02
66762;BME280;53672;48.176;16.338;2023-05-09T23:04:51;99032.22;;;11.68;64.37
66762;BME280;53672;48.176;16.338;2023-05-09T23:09:53;99035.00;;;11.63;63.09
66762;BME280;53672;48.176;16.338;2023-05-09T23:14:54;99025.97;;;11.73;63.42
66762;BME280;53672;48.176;16.338;2023-05-09T23:19:54;99035.00;;;11.63;63.88
66762;BME280;53672;48.176;16.338;2023-05-09T23:24:56;99015.19;;;11.49;65.59
66762;BME280;53672;48.176;16.338;2023-05-09T23:29:56;99008.31;;;11.38;66.09
66762;BME280;53672;48.176;16.338;2023-05-09T23:34:57;99005.59;;;11.38;66.31
66762;BME280;53672;48.176;16.338;2023-05-09T23:39:59;98994.88;;;11.33;65.63
66762;BME280;53672;48.176;16.338;2023-05-09T23:44:59;98998.66;;;11.32;66.03
66762;BME280;53672;48.176;16.338;2023-05-09T23:50:00;98986.84;;;11.28;66.36
66762;BME280;53672;48.176;16.338;2023-05-09T23:55:02;98987.38;;;11.06;67.17
